Bluefields, Nicaragua
Current Conditions -  °F | °C
As of 12:20 PM on Thursday 30 Oct 2014 (Local Time) from MROC Reporting Station
Broken Clouds Broken Clouds  
Wind Chill: 79°   Ceiling: 25000
Heat Index: 81°   Visibility: 6mi
Dew Point: 70°   Wind: 12mph
Humidity: 74%   Direction: 240°WSW
Pressure: 29.92"   Gusts: NA
Location:  12.01°N, 83.77°W
Report Text: MROC 301820Z 24010KT 9999 FEW025TCU SCT040 BKN250 26/21 A2992 NOSIG
Loading
Personal Weather Stations






























Interactive Weather Map
Tropical Storm Tracking
New forecast layout! Learn more

10-Day Weather Forecast

Advertisements
Track Severe Weather on mobile